Time;durP1;ratioP1;P1;durP2;ratioP2;P2;SDS_P1;SDS_P2;PMS_P1;PMS_P2;Temp;Humidity;BMP_temperature;BMP_pressure;BME280_temperature;BME280_humidity;BME280_pressure;Samples;Min_cycle;Max_cycle;Signal;HPM_P1;HPM_P2
2022/04/11 00:22:29;;;;;;;13.55;8.95;;;;;;;;;;4459324;28;20330;-63
2022/04/11 00:24:54;;;;;;;16.85;9.65;;;;;;;;;;4184651;34;20133;-62
2022/04/11 00:27:20;;;;;;;17.70;8.57;;;;;;;;;;4190234;34;20210;-62
2022/04/11 00:29:46;;;;;;;14.85;8.48;;;;;;;;;;4190764;34;20201;-63
2022/04/11 00:32:12;;;;;;;14.90;8.32;;;;;;;;;;4190472;34;20102;-62
2022/04/11 00:34:38;;;;;;;14.55;9.55;;;;;;;;;;4190395;34;20109;-61
2022/04/11 00:37:04;;;;;;;15.55;8.13;;;;;;;;;;4177665;34;20114;-63
2022/04/11 00:39:30;;;;;;;15.85;8.85;;;;;;;;;;4190557;34;20130;-63
2022/04/11 00:41:56;;;;;;;11.70;7.57;;;;;;;;;;4190226;34;20538;-62
2022/04/11 00:44:22;;;;;;;14.63;8.35;;;;;;;;;;4190527;34;20539;-63
2022/04/11 00:46:48;;;;;;;12.75;8.02;;;;;;;;;;4190295;34;20148;-62
2022/04/11 00:49:14;;;;;;;11.55;8.25;;;;;;;;;;4190229;34;20183;-62
2022/04/11 00:51:40;;;;;;;16.17;8.45;;;;;;;;;;4177487;34;20118;-62
2022/04/11 00:54:07;;;;;;;10.85;7.45;;;;;;;;;;4190203;34;20122;-62
2022/04/11 00:56:35;;;;;;;11.77;7.90;;;;;;;;;;4190258;34;20580;-62
2022/04/11 00:59:02;;;;;;;13.85;8.23;;;;;;;;;;4188602;34;20116;-62
2022/04/11 01:01:28;;;;;;;10.38;7.53;;;;;;;;;;4190389;34;20205;-62
2022/04/11 01:03:54;;;;;;;12.65;8.10;;;;;;;;;;4177792;34;20114;-62
2022/04/11 01:06:20;;;;;;;9.70;7.62;;;;;;;;;;4190289;34;20122;-62
2022/04/11 01:08:46;;;;;;;14.68;8.55;;;;;;;;;;4190292;34;20197;-63
2022/04/11 01:11:12;;;;;;;10.70;8.52;;;;;;;;;;4190032;34;20209;-63
2022/04/11 01:13:41;;;;;;;13.88;9.20;;;;;;;;;;4189949;34;20459;-64
2022/04/11 01:16:07;;;;;;;16.00;8.23;;;;;;;;;;4177216;34;20114;-63
2022/04/11 01:18:36;;;;;;;10.10;7.68;;;;;;;;;;4190047;34;20112;-60
2022/04/11 01:21:03;;;;;;;12.30;8.43;;;;;;;;;;4177122;34;20192;-63
2022/04/11 01:23:29;;;;;;;15.00;8.80;;;;;;;;;;4189694;34;20086;-62
2022/04/11 01:25:57;;;;;;;9.30;7.32;;;;;;;;;;4189798;34;20145;-61
2022/04/11 01:28:23;;;;;;;21.25;12.45;;;;;;;;;;4188345;34;20209;-60
2022/04/11 01:30:53;;;;;;;12.35;8.32;;;;;;;;;;4189161;34;20117;-62
2022/04/11 01:33:28;;;;;;;10.43;7.80;;;;;;;;;;4191981;34;20106;-62
2022/04/11 01:35:53;;;;;;;12.02;8.85;;;;;;;;;;4191974;34;20134;-62
2022/04/11 01:38:20;;;;;;;14.70;8.02;;;;;;;;;;4192151;34;20124;-62
2022/04/11 01:40:55;;;;;;;15.73;8.68;;;;;;;;;;4192002;34;20114;-62
2022/04/11 01:43:22;;;;;;;12.98;7.75;;;;;;;;;;4192206;34;20098;-62
2022/04/11 01:45:48;;;;;;;13.57;8.32;;;;;;;;;;4190511;34;20128;-62
2022/04/11 01:48:14;;;;;;;11.32;7.65;;;;;;;;;;4191615;34;20125;-62
2022/04/11 01:50:41;;;;;;;9.82;7.50;;;;;;;;;;4190509;34;20103;-62
2022/04/11 01:53:08;;;;;;;11.10;7.80;;;;;;;;;;4191686;34;20134;-62
2022/04/11 01:55:34;;;;;;;12.63;7.87;;;;;;;;;;4190613;34;20111;-61
2022/04/11 01:58:01;;;;;;;10.45;7.75;;;;;;;;;;4192102;34;20110;-62
2022/04/11 02:00:27;;;;;;;15.65;8.23;;;;;;;;;;4191657;34;20597;-62
2022/04/11 02:02:53;;;;;;;10.90;7.87;;;;;;;;;;4191735;34;20124;-62
2022/04/11 02:05:19;;;;;;;10.90;7.72;;;;;;;;;;4191714;34;20118;-63
2022/04/11 02:07:45;;;;;;;10.65;7.65;;;;;;;;;;4191801;34;20121;-63
2022/04/11 02:10:11;;;;;;;11.70;7.43;;;;;;;;;;4191824;34;20533;-62
2022/04/11 02:12:41;;;;;;;11.40;6.75;;;;;;;;;;4192087;34;20117;-63
2022/04/11 02:15:11;;;;;;;11.40;7.65;;;;;;;;;;4191649;34;20101;-63
2022/04/11 02:17:37;;;;;;;10.45;7.57;;;;;;;;;;4179005;34;20109;-63
2022/04/11 02:20:04;;;;;;;10.50;7.30;;;;;;;;;;4190064;34;20509;-62
2022/04/11 02:22:49;;;;;;;9.88;7.75;;;;;;;;;;4191666;34;20109;-62
2022/04/11 02:25:16;;;;;;;9.77;7.47;;;;;;;;;;4191421;34;20104;-62
2022/04/11 02:27:43;;;;;;;11.45;7.85;;;;;;;;;;4191532;34;20117;-61
2022/04/11 02:30:09;;;;;;;14.87;7.90;;;;;;;;;;4191347;34;20110;-63
2022/04/11 02:32:35;;;;;;;10.80;7.60;;;;;;;;;;4191446;34;20109;-62
2022/04/11 02:35:01;;;;;;;12.10;7.25;;;;;;;;;;4191436;34;20129;-62
2022/04/11 02:37:27;;;;;;;8.63;7.22;;;;;;;;;;4191730;34;20167;-62
2022/04/11 02:39:53;;;;;;;9.80;7.18;;;;;;;;;;4191225;34;20139;-62
2022/04/11 02:42:23;;;;;;;9.60;7.53;;;;;;;;;;4191199;34;20134;-62
2022/04/11 02:44:49;;;;;;;12.85;7.05;;;;;;;;;;4191548;34;20106;-62
2022/04/11 02:47:15;;;;;;;9.98;7.53;;;;;;;;;;4191902;34;20111;-61
2022/04/11 02:49:41;;;;;;;10.75;8.35;;;;;;;;;;4191381;34;20134;-62
2022/04/11 02:52:07;;;;;;;13.02;8.15;;;;;;;;;;4178548;34;20201;-62
2022/04/11 02:54:33;;;;;;;13.40;6.80;;;;;;;;;;4191499;34;20534;-62
2022/04/11 02:56:59;;;;;;;10.27;7.37;;;;;;;;;;4191484;34;20123;-62
2022/04/11 02:59:25;;;;;;;8.75;6.75;;;;;;;;;;4191426;34;20116;-60
2022/04/11 03:01:51;;;;;;;8.18;6.35;;;;;;;;;;4191600;34;20469;-61
2022/04/11 03:04:17;;;;;;;8.05;6.50;;;;;;;;;;4191469;34;20216;-60
2022/04/11 03:06:43;;;;;;;8.18;5.82;;;;;;;;;;4191153;34;20133;-60
2022/04/11 03:09:09;;;;;;;7.30;5.47;;;;;;;;;;4191089;34;20125;-60
2022/04/11 03:11:35;;;;;;;6.40;4.93;;;;;;;;;;4189928;34;20222;-60
2022/04/11 03:14:01;;;;;;;10.35;5.35;;;;;;;;;;4191097;34;20617;-60
2022/04/11 03:16:27;;;;;;;6.40;5.03;;;;;;;;;;4191321;34;20117;-60
2022/04/11 03:18:53;;;;;;;7.75;4.80;;;;;;;;;;4191234;34;20121;-60
2022/04/11 03:21:19;;;;;;;7.10;4.80;;;;;;;;;;4191063;34;20118;-61
2022/04/11 03:23:45;;;;;;;8.77;5.18;;;;;;;;;;4190884;34;20145;-62
2022/04/11 03:26:11;;;;;;;7.18;4.70;;;;;;;;;;4190818;34;20522;-60
2022/04/11 03:28:37;;;;;;;8.90;4.47;;;;;;;;;;4191350;34;20105;-60
2022/04/11 03:31:03;;;;;;;7.25;5.00;;;;;;;;;;4190908;34;20188;-62
2022/04/11 03:33:29;;;;;;;9.48;5.20;;;;;;;;;;4190929;34;20212;-61
2022/04/11 03:35:55;;;;;;;5.62;4.60;;;;;;;;;;4190947;34;20125;-62
2022/04/11 03:38:21;;;;;;;5.82;5.15;;;;;;;;;;4191009;34;20221;-62
2022/04/11 03:40:47;;;;;;;9.23;6.47;;;;;;;;;;4191011;34;20102;-61
2022/04/11 03:43:13;;;;;;;6.57;4.62;;;;;;;;;;4191214;34;20579;-62
2022/04/11 03:45:39;;;;;;;6.65;4.87;;;;;;;;;;4190922;34;20110;-62
2022/04/11 03:48:05;;;;;;;5.62;4.28;;;;;;;;;;4189466;34;20518;-63
2022/04/11 03:50:31;;;;;;;6.03;4.70;;;;;;;;;;4190842;34;20117;-68
2022/04/11 03:52:57;;;;;;;10.93;5.12;;;;;;;;;;4178254;34;20186;-64
2022/04/11 03:55:24;;;;;;;11.15;4.90;;;;;;;;;;4189907;34;20106;-68
2022/04/11 03:57:50;;;;;;;12.25;5.72;;;;;;;;;;4190854;34;20114;-61
2022/04/11 04:00:19;;;;;;;6.90;5.65;;;;;;;;;;4190836;34;20124;-64
2022/04/11 04:02:45;;;;;;;8.32;6.32;;;;;;;;;;4178222;34;20126;-63
2022/04/11 04:05:11;;;;;;;8.65;6.20;;;;;;;;;;4190942;34;20136;-67
2022/04/11 04:07:37;;;;;;;9.20;6.95;;;;;;;;;;4190795;34;20141;-63
2022/04/11 04:10:04;;;;;;;15.02;7.62;;;;;;;;;;4190907;34;20435;-60
2022/04/11 04:12:30;;;;;;;10.23;7.25;;;;;;;;;;4190701;34;20518;-60
2022/04/11 04:14:56;;;;;;;19.55;9.90;;;;;;;;;;4190629;34;20193;-60
2022/04/11 04:17:22;;;;;;;14.60;10.25;;;;;;;;;;4190537;34;20145;-60
2022/04/11 04:19:48;;;;;;;16.75;10.75;;;;;;;;;;4190479;34;20109;-61
2022/04/11 04:22:15;;;;;;;14.27;10.85;;;;;;;;;;4190430;34;20134;-61
2022/04/11 04:24:41;;;;;;;18.95;12.35;;;;;;;;;;4190476;34;20511;-60
2022/04/11 04:27:07;;;;;;;17.98;12.43;;;;;;;;;;4189013;34;20533;-60
2022/04/11 04:29:34;;;;;;;19.25;13.20;;;;;;;;;;4190485;34;20140;-60
2022/04/11 04:32:01;;;;;;;25.23;13.60;;;;;;;;;;4190591;34;20114;-62
2022/04/11 04:34:29;;;;;;;18.67;14.27;;;;;;;;;;4190570;34;20209;-61
2022/04/11 04:36:55;;;;;;;28.05;15.07;;;;;;;;;;4190464;34;20112;-61
2022/04/11 04:39:21;;;;;;;24.73;14.15;;;;;;;;;;4190384;34;20118;-61
2022/04/11 04:41:47;;;;;;;21.80;14.23;;;;;;;;;;4190237;34;20098;-62
2022/04/11 04:44:12;;;;;;;24.87;15.00;;;;;;;;;;4190240;34;20218;-61
2022/04/11 04:46:38;;;;;;;22.17;16.27;;;;;;;;;;4190391;34;20481;-63
2022/04/11 04:49:04;;;;;;;29.40;16.12;;;;;;;;;;4190388;34;20279;-62
2022/04/11 04:51:30;;;;;;;19.75;13.82;;;;;;;;;;4190104;34;20218;-62
2022/04/11 04:53:56;;;;;;;23.27;15.20;;;;;;;;;;4190214;34;20528;-61
2022/04/11 04:56:22;;;;;;;22.27;15.55;;;;;;;;;;4188512;34;20202;-60
2022/04/11 04:58:49;;;;;;;27.33;16.10;;;;;;;;;;4190086;34;20198;-62
2022/04/11 05:01:15;;;;;;;31.27;18.35;;;;;;;;;;4190071;34;20138;-59
2022/04/11 05:03:41;;;;;;;36.97;20.23;;;;;;;;;;4190350;34;20126;-60
2022/04/11 05:06:08;;;;;;;31.23;18.70;;;;;;;;;;4191000;34;20335;-58
2022/04/11 05:08:34;;;;;;;31.45;18.83;;;;;;;;;;4192355;34;20132;-60
2022/04/11 05:11:00;;;;;;;34.97;18.95;;;;;;;;;;4192051;34;20121;-60
2022/04/11 05:13:27;;;;;;;34.20;18.00;;;;;;;;;;4192060;34;20094;-60
2022/04/11 05:15:52;;;;;;;31.95;18.65;;;;;;;;;;4192097;34;20098;-60
2022/04/11 05:18:18;;;;;;;45.50;23.42;;;;;;;;;;4192385;34;20106;-60
2022/04/11 05:20:45;;;;;;;47.90;22.70;;;;;;;;;;4192366;34;20137;-60
2022/04/11 05:23:11;;;;;;;47.97;23.30;;;;;;;;;;4191938;34;20503;-58
2022/04/11 05:25:37;;;;;;;38.67;23.23;;;;;;;;;;4192187;34;20209;-58
2022/04/11 05:28:03;;;;;;;46.85;25.73;;;;;;;;;;4192001;34;20133;-58
2022/04/11 05:30:35;;;;;;;42.20;22.87;;;;;;;;;;4191952;34;20559;-57
2022/04/11 05:33:02;;;;;;;42.65;23.33;;;;;;;;;;4191934;34;20709;-61
2022/04/11 05:35:28;;;;;;;55.90;24.08;;;;;;;;;;4192009;34;20114;-60
2022/04/11 05:37:54;;;;;;;43.35;22.60;;;;;;;;;;4191991;34;20196;-61
2022/04/11 05:40:20;;;;;;;33.00;20.67;;;;;;;;;;4191909;34;20114;-60
2022/04/11 05:42:46;;;;;;;37.97;23.73;;;;;;;;;;4192106;34;20442;-60
2022/04/11 05:45:13;;;;;;;46.75;23.98;;;;;;;;;;4191820;34;20148;-59
2022/04/11 05:47:39;;;;;;;46.95;22.85;;;;;;;;;;4191997;34;20518;-60
2022/04/11 05:50:05;;;;;;;43.42;21.62;;;;;;;;;;4191784;34;20118;-59
2022/04/11 05:52:31;;;;;;;41.78;21.12;;;;;;;;;;4192193;34;20351;-59
2022/04/11 05:54:57;;;;;;;37.05;20.70;;;;;;;;;;4191635;34;20210;-58
2022/04/11 05:57:23;;;;;;;39.42;19.85;;;;;;;;;;4192008;34;20125;-58
2022/04/11 05:59:49;;;;;;;36.92;20.83;;;;;;;;;;4190358;34;20543;-59
2022/04/11 06:02:15;;;;;;;40.33;20.02;;;;;;;;;;4191876;34;20589;-59
2022/04/11 06:04:41;;;;;;;37.05;19.30;;;;;;;;;;4192154;34;20498;-59
2022/04/11 06:07:08;;;;;;;37.90;20.92;;;;;;;;;;4191495;34;20125;-58
2022/04/11 06:09:34;;;;;;;38.38;21.92;;;;;;;;;;4191663;34;20185;-58
2022/04/11 06:12:00;;;;;;;56.20;25.88;;;;;;;;;;4191625;34;20087;-59
2022/04/11 06:14:26;;;;;;;45.03;24.20;;;;;;;;;;4191682;34;20089;-61
2022/04/11 06:16:52;;;;;;;37.55;23.35;;;;;;;;;;4191007;34;20184;-62
2022/04/11 06:19:18;;;;;;;41.40;22.33;;;;;;;;;;4191476;34;20209;-61
2022/04/11 06:21:44;;;;;;;43.85;24.15;;;;;;;;;;4191477;34;20118;-63
2022/04/11 06:24:10;;;;;;;50.40;26.27;;;;;;;;;;4191653;34;20122;-63
2022/04/11 06:26:36;;;;;;;52.70;29.10;;;;;;;;;;4191207;34;20241;-63
2022/04/11 06:29:02;;;;;;;42.95;22.13;;;;;;;;;;4190328;34;20130;-61
2022/04/11 06:31:28;;;;;;;37.30;20.50;;;;;;;;;;4178571;34;20506;-65
2022/04/11 06:33:54;;;;;;;41.30;23.08;;;;;;;;;;4191436;34;20121;-62
2022/04/11 06:36:20;;;;;;;34.00;18.87;;;;;;;;;;4191223;34;20614;-62
2022/04/11 06:38:46;;;;;;;30.15;18.52;;;;;;;;;;4191381;34;20123;-63
2022/04/11 06:41:12;;;;;;;31.60;17.60;;;;;;;;;;4191221;34;20095;-61
2022/04/11 06:43:38;;;;;;;31.85;18.45;;;;;;;;;;4191591;34;20424;-59
2022/04/11 06:46:04;;;;;;;27.52;15.75;;;;;;;;;;4191329;34;20217;-59
2022/04/11 06:48:30;;;;;;;28.08;17.40;;;;;;;;;;4191367;34;20530;-59
2022/04/11 06:50:57;;;;;;;30.98;16.80;;;;;;;;;;4191530;34;20201;-59
2022/04/11 06:53:23;;;;;;;24.48;17.10;;;;;;;;;;4191363;34;20090;-59
2022/04/11 06:55:49;;;;;;;35.65;17.37;;;;;;;;;;4191161;34;20202;-59
2022/04/11 06:58:16;;;;;;;31.17;17.52;;;;;;;;;;4191058;34;20129;-59
2022/04/11 07:00:43;;;;;;;27.75;17.30;;;;;;;;;;4191525;34;20113;-59
2022/04/11 07:03:09;;;;;;;33.05;19.30;;;;;;;;;;4191120;34;20124;-59
2022/04/11 07:05:36;;;;;;;33.00;16.52;;;;;;;;;;4191437;34;20212;-59
2022/04/11 07:08:03;;;;;;;29.17;18.27;;;;;;;;;;4191111;34;20090;-58
2022/04/11 07:10:30;;;;;;;35.40;19.90;;;;;;;;;;4191285;34;20121;-59
2022/04/11 07:12:56;;;;;;;48.15;27.95;;;;;;;;;;4191157;34;20110;-60
2022/04/11 07:15:22;;;;;;;39.03;21.73;;;;;;;;;;4191160;34;20674;-58
2022/04/11 07:17:48;;;;;;;35.50;22.33;;;;;;;;;;4189790;34;20185;-58
2022/04/11 07:20:14;;;;;;;36.17;20.33;;;;;;;;;;4190864;34;20129;-59
2022/04/11 07:22:40;;;;;;;29.02;16.67;;;;;;;;;;4190799;34;20206;-58
2022/04/11 07:25:06;;;;;;;30.52;17.33;;;;;;;;;;4191112;34;20197;-59
2022/04/11 07:27:32;;;;;;;25.95;16.92;;;;;;;;;;4189664;34;20210;-61
2022/04/11 07:29:58;;;;;;;30.15;20.60;;;;;;;;;;4190742;34;20217;-61
2022/04/11 07:32:24;;;;;;;30.50;17.60;;;;;;;;;;4191157;34;20129;-59
2022/04/11 07:34:50;;;;;;;24.90;16.92;;;;;;;;;;4190983;34;20132;-60
2022/04/11 07:37:16;;;;;;;29.92;17.65;;;;;;;;;;4189546;34;20102;-60
2022/04/11 07:39:43;;;;;;;26.58;17.10;;;;;;;;;;4190886;34;20543;-59
2022/04/11 07:42:09;;;;;;;26.23;17.05;;;;;;;;;;4190883;34;20451;-59
2022/04/11 07:44:35;;;;;;;25.67;15.35;;;;;;;;;;4189374;34;20777;-61
2022/04/11 07:47:01;;;;;;;23.62;13.90;;;;;;;;;;4190745;34;20109;-61
2022/04/11 07:49:27;;;;;;;21.95;13.02;;;;;;;;;;4190875;34;20116;-60
2022/04/11 07:51:53;;;;;;;18.30;12.82;;;;;;;;;;4190707;34;20510;-61
2022/04/11 07:54:19;;;;;;;25.60;14.02;;;;;;;;;;4190809;34;20113;-61
2022/04/11 07:56:45;;;;;;;29.87;17.02;;;;;;;;;;4189561;34;20086;-63
2022/04/11 07:59:11;;;;;;;30.17;16.90;;;;;;;;;;4190904;34;20106;-63
2022/04/11 08:01:36;;;;;;;29.40;15.43;;;;;;;;;;4190938;34;20458;-62
2022/04/11 08:04:03;;;;;;;32.38;16.50;;;;;;;;;;4190918;34;20127;-63
2022/04/11 08:06:29;;;;;;;29.67;17.87;;;;;;;;;;4190648;34;20126;-63
2022/04/11 08:08:55;;;;;;;31.45;15.40;;;;;;;;;;4190660;34;20565;-64
2022/04/11 08:11:21;;;;;;;33.63;16.12;;;;;;;;;;4189204;34;20114;-62
2022/04/11 08:13:48;;;;;;;26.77;15.65;;;;;;;;;;4190915;34;20163;-63
2022/04/11 08:16:14;;;;;;;25.00;14.10;;;;;;;;;;4190615;34;20550;-63
2022/04/11 08:18:40;;;;;;;22.83;14.18;;;;;;;;;;4190539;34;20130;-62
2022/04/11 08:21:06;;;;;;;24.20;15.10;;;;;;;;;;4190411;34;20121;-62
2022/04/11 08:23:32;;;;;;;24.85;14.85;;;;;;;;;;4189028;34;20133;-62
2022/04/11 08:25:58;;;;;;;22.35;14.68;;;;;;;;;;4188907;34;20137;-62
2022/04/11 08:28:24;;;;;;;21.35;12.32;;;;;;;;;;4190429;34;20118;-65
2022/04/11 08:30:50;;;;;;;26.00;14.40;;;;;;;;;;4190781;34;20113;-62
2022/04/11 08:33:16;;;;;;;25.90;13.70;;;;;;;;;;4190716;34;20296;-61
2022/04/11 08:35:42;;;;;;;21.27;12.88;;;;;;;;;;4190802;34;20129;-62
2022/04/11 08:38:08;;;;;;;21.35;12.02;;;;;;;;;;4190679;34;20220;-63
2022/04/11 08:40:35;;;;;;;22.13;11.75;;;;;;;;;;4189821;34;20141;-70
2022/04/11 08:43:02;;;;;;;24.27;13.30;;;;;;;;;;4188987;34;20212;-60
2022/04/11 08:45:29;;;;;;;22.67;13.75;;;;;;;;;;4189033;34;20185;-61
2022/04/11 08:47:56;;;;;;;25.75;12.32;;;;;;;;;;4190144;34;20114;-63
2022/04/11 08:50:24;;;;;;;28.62;14.32;;;;;;;;;;4190409;34;20122;-61
2022/04/11 08:52:51;;;;;;;26.35;13.95;;;;;;;;;;4190575;34;20109;-60
2022/04/11 08:55:17;;;;;;;32.08;17.02;;;;;;;;;;4190204;34;20102;-62
2022/04/11 08:57:43;;;;;;;32.42;16.45;;;;;;;;;;4190210;34;20113;-63
2022/04/11 09:00:23;;;;;;;24.55;12.45;;;;;;;;;;4189878;34;20107;-67
2022/04/11 09:02:49;;;;;;;20.65;11.30;;;;;;;;;;4177616;34;20170;-68
2022/04/11 09:05:23;;;;;;;21.58;12.65;;;;;;;;;;4189381;34;20121;-65
2022/04/11 09:07:52;;;;;;;19.90;13.00;;;;;;;;;;4190048;34;20190;-67
2022/04/11 09:10:20;;;;;;;24.50;12.93;;;;;;;;;;4190099;34;20522;-68
2022/04/11 09:12:56;;;;;;;18.62;11.77;;;;;;;;;;4189890;34;20209;-66
2022/04/11 09:15:23;;;;;;;27.15;14.07;;;;;;;;;;4190041;34;20432;-65
2022/04/11 09:17:50;;;;;;;23.40;12.40;;;;;;;;;;4177175;34;20118;-65
2022/04/11 09:20:21;;;;;;;24.75;13.07;;;;;;;;;;4188564;34;20121;-69
2022/04/11 09:22:48;;;;;;;23.50;12.98;;;;;;;;;;4188502;34;20099;-67
2022/04/11 09:25:15;;;;;;;20.70;11.48;;;;;;;;;;4189913;34;20130;-64
2022/04/11 09:27:42;;;;;;;20.70;10.95;;;;;;;;;;4189689;34;20129;-68
2022/04/11 09:30:19;;;;;;;24.98;12.98;;;;;;;;;;4190026;34;20598;-66
2022/04/11 09:32:57;;;;;;;27.75;13.50;;;;;;;;;;4188349;34;20114;-69
2022/04/11 09:35:27;;;;;;;22.08;14.20;;;;;;;;;;4189945;34;20126;-63
2022/04/11 09:38:06;;;;;;;42.62;15.38;;;;;;;;;;4189884;34;20126;-62
2022/04/11 09:40:43;;;;;;;23.40;15.15;;;;;;;;;;4189706;34;20110;-62
2022/04/11 09:43:11;;;;;;;22.67;14.10;;;;;;;;;;4190024;34;20209;-63
2022/04/11 09:45:44;;;;;;;26.58;12.93;;;;;;;;;;4189706;34;20110;-65
2022/04/11 09:48:11;;;;;;;30.95;14.20;;;;;;;;;;4189713;34;20109;-64
2022/04/11 09:50:37;;;;;;;42.97;14.70;;;;;;;;;;4184697;34;20119;-64
2022/04/11 09:53:14;;;;;;;20.80;11.55;;;;;;;;;;4189966;34;20101;-64
2022/04/11 09:55:42;;;;;;;24.98;12.50;;;;;;;;;;4191615;34;20153;-65
2022/04/11 09:58:08;;;;;;;28.25;13.15;;;;;;;;;;4191756;34;20696;-65
2022/04/11 10:00:38;;;;;;;23.87;11.60;;;;;;;;;;4191885;34;20125;-62
2022/04/11 10:03:05;;;;;;;27.87;11.23;;;;;;;;;;4191811;34;20227;-63
2022/04/11 10:05:35;;;;;;;23.35;11.25;;;;;;;;;;4191840;34;20125;-65
2022/04/11 10:08:09;;;;;;;29.80;11.70;;;;;;;;;;4179031;34;20117;-64
2022/04/11 10:10:39;;;;;;;28.23;11.95;;;;;;;;;;4178798;34;20605;-66
2022/04/11 10:13:10;;;;;;;26.87;11.45;;;;;;;;;;4191793;34;20108;-66
2022/04/11 10:15:37;;;;;;;29.48;9.43;;;;;;;;;;4191939;34;20128;-66
2022/04/11 10:18:04;;;;;;;27.67;12.68;;;;;;;;;;4191593;34;20113;-64
2022/04/11 10:20:34;;;;;;;36.67;14.73;;;;;;;;;;4178811;34;20121;-66
2022/04/11 10:23:08;;;;;;;21.50;12.75;;;;;;;;;;4191606;34;20133;-66
2022/04/11 10:25:38;;;;;;;23.90;13.05;;;;;;;;;;4190181;34;20130;-66
2022/04/11 10:28:24;;;;;;;20.50;11.18;;;;;;;;;;4191449;34;20132;-65
2022/04/11 10:31:10;;;;;;;24.27;12.80;;;;;;;;;;4191872;34;20121;-69
2022/04/11 10:33:41;;;;;;;31.90;11.43;;;;;;;;;;4178279;34;20117;-66
2022/04/11 10:36:36;;;;;;;24.33;11.85;;;;;;;;;;4190359;34;20129;-64
2022/04/11 10:39:14;;;;;;;24.12;11.60;;;;;;;;;;4191231;34;20184;-64
2022/04/11 10:41:58;;;;;;;41.10;12.10;;;;;;;;;;4191353;34;20098;-64
2022/04/11 10:44:37;;;;;;;22.50;13.73;;;;;;;;;;4191385;34;20090;-64
2022/04/11 10:47:09;;;;;;;26.77;12.95;;;;;;;;;;4191388;34;20739;-64
2022/04/11 10:49:50;;;;;;;29.67;12.50;;;;;;;;;;4191435;34;20110;-64
2022/04/11 10:52:36;;;;;;;30.55;12.63;;;;;;;;;;4191547;34;20148;-64
2022/04/11 10:55:17;;;;;;;32.38;13.35;;;;;;;;;;4191327;34;20110;-64
2022/04/11 10:57:51;;;;;;;25.95;11.82;;;;;;;;;;4191403;34;20125;-64
2022/04/11 11:00:27;;;;;;;26.50;13.30;;;;;;;;;;4191186;34;20442;-64
2022/04/11 11:03:02;;;;;;;30.00;12.82;;;;;;;;;;4191176;34;20282;-64
2022/04/11 11:05:31;;;;;;;27.65;12.45;;;;;;;;;;4191401;34;20121;-64
2022/04/11 11:10:54;;;;;;;26.95;12.07;;;;;;;;;;4191640;34;20434;-64
2022/04/11 11:13:38;;;;;;;25.25;12.30;;;;;;;;;;4191213;34;20113;-64
2022/04/11 11:16:06;;;;;;;23.27;10.10;;;;;;;;;;4191021;34;20164;-66
2022/04/11 11:21:13;;;;;;;30.23;10.60;;;;;;;;;;4191384;34;20126;-63
2022/04/11 11:23:40;;;;;;;19.02;10.13;;;;;;;;;;4191301;34;20202;-64
2022/04/11 11:26:10;;;;;;;20.33;11.40;;;;;;;;;;4191164;34;20213;-64
2022/04/11 11:28:37;;;;;;;24.95;12.15;;;;;;;;;;4190916;34;20237;-63
2022/04/11 11:31:04;;;;;;;23.25;9.73;;;;;;;;;;4189415;34;20175;-64
2022/04/11 11:33:32;;;;;;;22.95;11.00;;;;;;;;;;4190982;34;20206;-64
2022/04/11 11:35:58;;;;;;;19.77;10.05;;;;;;;;;;4190860;34;20102;-63
2022/04/11 11:38:29;;;;;;;20.45;9.65;;;;;;;;;;4191039;34;20208;-62
2022/04/11 11:40:57;;;;;;;29.52;10.52;;;;;;;;;;4191056;34;20112;-63
2022/04/11 11:43:24;;;;;;;28.42;9.65;;;;;;;;;;4189969;34;20134;-62
2022/04/11 11:45:50;;;;;;;26.42;9.50;;;;;;;;;;4189166;34;20210;-64
2022/04/11 11:48:25;;;;;;;22.30;8.60;;;;;;;;;;4191286;34;20100;-69
2022/04/11 11:50:52;;;;;;;24.25;8.68;;;;;;;;;;4191169;34;20099;-62
2022/04/11 11:53:18;;;;;;;27.62;9.80;;;;;;;;;;4190644;34;20121;-62
2022/04/11 11:55:58;;;;;;;16.60;8.57;;;;;;;;;;4190824;34;20498;-62
2022/04/11 11:58:34;;;;;;;28.20;9.23;;;;;;;;;;4190682;34;20106;-63
2022/04/11 12:01:00;;;;;;;26.62;8.57;;;;;;;;;;4190736;34;21012;-64
2022/04/11 12:06:11;;;;;;;23.10;8.83;;;;;;;;;;4179889;34;20120;-61
2022/04/11 12:08:37;;;;;;;22.15;9.02;;;;;;;;;;4190581;34;20138;-61
2022/04/11 12:11:03;;;;;;;16.23;7.62;;;;;;;;;;4190615;34;20209;-61
2022/04/11 12:13:31;;;;;;;17.48;7.30;;;;;;;;;;4189164;34;20121;-61
2022/04/11 12:16:11;;;;;;;21.20;7.65;;;;;;;;;;4189620;34;20536;-61
2022/04/11 12:18:51;;;;;;;19.17;7.28;;;;;;;;;;4190517;34;20118;-61
2022/04/11 12:21:17;;;;;;;20.42;8.05;;;;;;;;;;4190560;34;20199;-62
2022/04/11 12:23:48;;;;;;;16.87;7.07;;;;;;;;;;4190655;34;20246;-61
2022/04/11 12:26:35;;;;;;;19.90;7.28;;;;;;;;;;4190319;34;20576;-62
2022/04/11 12:29:07;;;;;;;21.65;8.10;;;;;;;;;;4190460;34;20882;-61
2022/04/11 12:31:33;;;;;;;21.45;8.32;;;;;;;;;;4190750;34;20201;-62
2022/04/11 12:34:12;;;;;;;20.80;7.87;;;;;;;;;;4190277;34;20105;-62
2022/04/11 12:36:56;;;;;;;20.33;8.45;;;;;;;;;;4190431;34;20141;-62
2022/04/11 12:39:25;;;;;;;18.23;6.20;;;;;;;;;;4190537;34;20204;-62
2022/04/11 12:41:51;;;;;;;22.70;6.62;;;;;;;;;;4188531;34;20122;-61
2022/04/11 12:44:19;;;;;;;10.23;6.70;;;;;;;;;;4190101;34;20114;-61
2022/04/11 12:46:57;;;;;;;18.83;5.95;;;;;;;;;;4190323;34;20619;-61
2022/04/11 12:49:24;;;;;;;15.73;7.03;;;;;;;;;;4190163;34;20199;-61
2022/04/11 12:52:05;;;;;;;22.52;8.00;;;;;;;;;;4189818;34;20209;-61
2022/04/11 12:54:44;;;;;;;13.13;5.43;;;;;;;;;;4188537;34;20193;-60
2022/04/11 12:57:21;;;;;;;22.02;7.15;;;;;;;;;;4182927;34;20141;-61
2022/04/11 12:59:47;;;;;;;15.57;5.60;;;;;;;;;;4190013;34;20536;-63
2022/04/11 13:02:16;;;;;;;14.40;5.60;;;;;;;;;;4189806;34;20117;-64
2022/04/11 13:04:51;;;;;;;26.12;8.30;;;;;;;;;;4190234;34;20130;-63
2022/04/11 13:07:19;;;;;;;25.80;6.80;;;;;;;;;;4189974;34;20121;-62
2022/04/11 13:09:45;;;;;;;19.80;7.05;;;;;;;;;;4189912;34;20532;-63
2022/04/11 13:12:13;;;;;;;49.25;8.60;;;;;;;;;;4189858;34;20593;-63
2022/04/11 13:14:41;;;;;;;23.90;6.87;;;;;;;;;;4189874;34;20141;-62
2022/04/11 13:19:52;;;;;;;11.35;5.80;;;;;;;;;;4189991;34;20125;-63
2022/04/11 13:22:18;;;;;;;21.05;6.20;;;;;;;;;;4177175;34;20129;-62
2022/04/11 13:24:44;;;;;;;10.85;5.45;;;;;;;;;;4189892;34;20138;-67
2022/04/11 13:27:10;;;;;;;14.25;5.70;;;;;;;;;;4178444;34;20451;-64
2022/04/11 13:29:36;;;;;;;16.92;5.43;;;;;;;;;;4190553;34;20110;-63
2022/04/11 13:32:02;;;;;;;14.57;5.07;;;;;;;;;;4191853;34;20130;-63
2022/04/11 13:34:29;;;;;;;20.85;5.53;;;;;;;;;;4179071;34;20122;-61
2022/04/11 13:36:55;;;;;;;16.65;5.85;;;;;;;;;;4191967;34;20125;-63
2022/04/11 13:39:22;;;;;;;17.30;5.97;;;;;;;;;;4191864;34;20114;-62
2022/04/11 13:41:48;;;;;;;16.90;6.03;;;;;;;;;;4179503;34;20507;-62
2022/04/11 13:44:16;;;;;;;16.45;5.78;;;;;;;;;;4179371;34;20186;-64
2022/04/11 13:46:43;;;;;;;19.00;7.12;;;;;;;;;;4191886;34;20641;-63
2022/04/11 13:49:10;;;;;;;19.40;6.68;;;;;;;;;;4191710;34;20098;-62
2022/04/11 13:51:37;;;;;;;19.62;7.18;;;;;;;;;;4191824;34;20117;-63
2022/04/11 13:54:04;;;;;;;18.40;5.78;;;;;;;;;;4191653;34;20182;-63
2022/04/11 13:56:31;;;;;;;21.87;6.45;;;;;;;;;;4178954;34;20122;-62
2022/04/11 13:58:57;;;;;;;17.23;5.90;;;;;;;;;;4178818;34;20184;-64
2022/04/11 14:01:24;;;;;;;22.37;6.40;;;;;;;;;;4191721;34;20110;-63
2022/04/11 14:03:51;;;;;;;17.90;5.90;;;;;;;;;;4190134;34;20553;-63
2022/04/11 14:06:17;;;;;;;24.25;6.80;;;;;;;;;;4189106;34;21136;-61
2022/04/11 14:08:43;;;;;;;13.38;5.37;;;;;;;;;;4190966;34;20114;-66
2022/04/11 14:11:09;;;;;;;10.07;4.53;;;;;;;;;;4191520;34;20114;-61
2022/04/11 14:13:36;;;;;;;14.95;5.43;;;;;;;;;;4190966;34;20178;-64
2022/04/11 14:16:06;;;;;;;18.15;5.87;;;;;;;;;;4191354;34;20145;-65
2022/04/11 14:18:32;;;;;;;14.05;5.28;;;;;;;;;;4191771;34;20101;-65
2022/04/11 14:20:58;;;;;;;13.27;4.90;;;;;;;;;;4191258;34;20165;-64
2022/04/11 14:23:27;;;;;;;21.00;5.50;;;;;;;;;;4190252;34;20181;-64
2022/04/11 14:25:53;;;;;;;49.35;7.12;;;;;;;;;;4191677;34;20098;-66
2022/04/11 14:28:18;;;;;;;26.85;5.40;;;;;;;;;;4191214;34;20133;-64
2022/04/11 14:30:44;;;;;;;19.08;5.43;;;;;;;;;;4191473;34;20114;-64
2022/04/11 14:33:11;;;;;;;12.52;4.90;;;;;;;;;;4191566;34;20208;-62
2022/04/11 14:35:39;;;;;;;21.37;5.20;;;;;;;;;;4192153;34;20090;-74
2022/04/11 14:38:06;;;;;;;14.95;4.97;;;;;;;;;;4191227;34;20114;-65
2022/04/11 14:40:32;;;;;;;16.48;5.68;;;;;;;;;;4178609;34;20438;-65
2022/04/11 14:42:58;;;;;;;14.77;4.62;;;;;;;;;;4191426;34;20474;-63
2022/04/11 14:45:24;;;;;;;7.00;4.35;;;;;;;;;;4191433;34;20109;-62
2022/04/11 14:47:50;;;;;;;55.58;7.78;;;;;;;;;;4191557;34;20118;-63
2022/04/11 14:50:16;;;;;;;16.05;4.60;;;;;;;;;;4189971;34;20162;-64
2022/04/11 14:52:42;;;;;;;15.05;6.55;;;;;;;;;;4190499;34;20567;-62
2022/04/11 14:55:09;;;;;;;12.55;4.55;;;;;;;;;;4191367;34;20110;-59
2022/04/11 14:57:34;;;;;;;13.15;4.47;;;;;;;;;;4191209;34;20214;-69
2022/04/11 15:00:02;;;;;;;24.23;5.35;;;;;;;;;;4191237;34;20126;-65